Time;durP1;ratioP1;P1;durP2;ratioP2;P2;SDS_P1;SDS_P2;PMS_P1;PMS_P2;Temp;Humidity;BMP_temperature;BMP_pressure;BME280_temperature;BME280_humidity;BME280_pressure;Samples;Min_cycle;Max_cycle;Signal;HPM_P1;HPM_P2
2021/09/15 00:00:05;;;;;;;1.17;1.05;;;23.20;52.60;;;27.35;34.76;101108.66;5133632;28;20064;-12
2021/09/15 00:02:37;;;;;;;1.40;1.30;;;23.20;52.60;;;27.37;34.61;101116.59;5133564;28;20051;-12
2021/09/15 00:05:05;;;;;;;1.55;0.98;;;23.10;52.60;;;27.35;34.66;101114.03;5133800;28;20039;-11
2021/09/15 00:07:31;;;;;;;1.38;1.27;;;23.20;52.70;;;27.35;34.74;101116.72;5133341;28;20138;-12
2021/09/15 00:09:56;;;;;;;1.23;1.13;;;23.10;52.60;;;27.33;34.73;101108.78;5133739;28;20047;-12
2021/09/15 00:12:22;;;;;;;1.27;1.15;;;23.10;52.70;;;27.33;34.68;101102.56;5133434;28;20082;-12
2021/09/15 00:14:48;;;;;;;1.80;1.42;;;23.10;52.70;;;27.33;34.92;101097.19;5133700;28;20368;-12
2021/09/15 00:17:14;;;;;;;1.70;1.60;;;23.10;52.70;;;27.32;34.99;101092.81;5133038;28;20101;-12
2021/09/15 00:19:40;;;;;;;1.20;1.08;;;23.10;52.70;;;27.34;34.78;101097.06;5133165;28;20095;-12
2021/09/15 00:22:05;;;;;;;1.58;1.48;;;23.20;52.70;;;27.32;34.73;101092.81;5133229;28;20456;-11
2021/09/15 00:24:31;;;;;;;1.48;1.38;;;23.10;52.70;;;27.32;34.96;101090.97;5133616;28;20391;-12
2021/09/15 00:26:57;;;;;;;1.17;1.08;;;23.20;52.70;;;27.31;35.06;101089.25;5133601;28;20382;-12
2021/09/15 00:29:23;;;;;;;1.10;1.10;;;23.10;52.70;;;27.33;34.84;101091.81;5133165;28;20043;-12
2021/09/15 00:31:48;;;;;;;1.55;1.45;;;23.20;52.70;;;27.33;34.87;101091.81;5114774;28;20121;-11
2021/09/15 00:34:15;;;;;;;1.30;1.15;;;23.10;52.70;;;27.30;34.95;101092.09;5133681;28;20043;-12
2021/09/15 00:36:41;;;;;;;1.13;1.08;;;23.10;52.70;;;27.33;34.81;101087.31;5133101;28;20398;-11
2021/09/15 00:39:07;;;;;;;1.40;1.30;;;23.10;52.70;;;27.32;34.75;101080.22;5133347;28;20075;-12
2021/09/15 00:41:33;;;;;;;1.00;1.00;;;23.10;52.70;;;27.31;34.73;101069.63;5133017;28;20043;-11
2021/09/15 00:44:09;;;;;;;1.17;1.08;;;23.10;52.80;;;27.28;34.95;101064.47;5133052;28;20130;-12
2021/09/15 00:46:38;;;;;;;1.65;1.40;;;23.10;52.70;;;27.30;34.68;101059.88;5135607;27;20047;-12
2021/09/15 00:49:04;;;;;;;1.33;1.23;;;23.10;52.70;;;27.29;34.75;101048.28;5136360;28;20051;-12
2021/09/15 00:51:39;;;;;;;1.20;1.10;;;23.10;52.70;;;27.29;34.94;101053.66;5136491;28;20050;-12
2021/09/15 00:54:06;;;;;;;1.40;1.30;;;23.10;52.70;;;27.29;34.91;101050.97;5117003;28;20048;-11
2021/09/15 00:56:33;;;;;;;1.40;1.30;;;23.10;52.70;;;27.28;34.75;101049.25;5118250;28;20043;-11
2021/09/15 00:58:59;;;;;;;1.50;1.40;;;23.10;52.80;;;27.30;34.77;101051.84;5117512;28;20112;-12
2021/09/15 01:01:25;;;;;;;1.33;1.20;;;23.10;52.80;;;27.31;34.82;101061.56;5136361;28;20058;-12
2021/09/15 01:03:54;;;;;;;2.40;1.10;;;23.10;52.70;;;27.27;34.78;101050.22;5136606;28;20064;-11
2021/09/15 01:06:21;;;;;;;1.23;1.13;;;23.10;52.70;;;27.30;34.77;101054.50;5136213;28;20050;-12
2021/09/15 01:08:47;;;;;;;1.23;1.13;;;23.10;52.70;;;27.28;35.02;101048.38;5118133;28;20418;-12
2021/09/15 01:11:18;;;;;;;1.55;1.10;;;23.10;52.80;;;27.29;34.95;101037.53;5118332;28;20047;-12
2021/09/15 01:13:54;;;;;;;2.35;1.15;;;23.10;52.80;;;27.31;35.12;101038.25;5119534;28;20068;-12
2021/09/15 01:16:53;;;;;;;1.30;1.20;;;23.10;52.80;;;27.29;34.99;101042.91;5120764;28;20050;-12
2021/09/15 01:19:52;;;;;;;1.52;1.40;;;23.10;52.80;;;27.30;34.76;101041.09;5132745;28;20047;-12
2021/09/15 01:22:37;;;;;;;1.55;1.40;;;23.10;52.80;;;27.28;34.80;101037.63;5136680;28;20055;-12
2021/09/15 01:25:21;;;;;;;1.50;1.40;;;23.10;52.70;;;27.27;34.98;101033.25;5136611;28;20042;-12
2021/09/15 01:28:06;;;;;;;1.60;1.40;;;23.10;52.70;;;27.28;35.11;101035.81;5136405;28;20079;-12
2021/09/15 01:30:40;;;;;;;1.35;1.25;;;23.10;52.70;;;27.27;34.92;101028.75;5117462;28;20047;-12
2021/09/15 01:33:16;;;;;;;1.10;1.00;;;23.10;52.80;;;27.27;34.98;101041.31;5115483;28;20048;-11
2021/09/15 01:35:43;;;;;;;1.23;1.13;;;23.10;52.80;;;27.27;35.01;101039.47;5136097;28;20483;-11
2021/09/15 01:38:11;;;;;;;1.17;1.08;;;23.10;52.80;;;27.27;35.09;101047.53;5115373;28;20395;-12
2021/09/15 01:40:38;;;;;;;1.33;1.23;;;23.10;52.80;;;27.27;34.91;101049.38;5115158;28;20047;-12
2021/09/15 01:43:05;;;;;;;1.30;1.20;;;23.10;52.80;;;27.27;34.99;101035.94;5117516;28;20055;-12
2021/09/15 01:45:30;;;;;;;1.42;1.33;;;23.10;52.70;;;27.26;34.98;101031.56;5135571;28;20054;-12
2021/09/15 01:47:57;;;;;;;1.50;1.40;;;23.10;52.80;;;27.25;34.91;101033.41;5117066;28;20039;-12
2021/09/15 01:50:27;;;;;;;1.50;1.40;;;23.10;52.80;;;27.26;35.10;101020.81;5115722;28;20040;-12
2021/09/15 01:52:53;;;;;;;1.55;1.33;;;23.10;52.90;;;27.28;35.11;101029.56;5117618;28;20039;-11
2021/09/15 01:55:28;;;;;;;1.20;1.10;;;23.10;52.90;;;27.27;34.85;101027.91;5117200;28;20047;-12
2021/09/15 01:58:16;;;;;;;1.90;1.15;;;23.10;52.80;;;27.28;34.99;101022.41;5132144;28;20047;-11
2021/09/15 02:01:01;;;;;;;1.40;1.30;;;23.10;52.80;;;27.27;34.90;101023.38;5135867;28;20053;-16
2021/09/15 02:03:46;;;;;;;1.50;1.40;;;23.10;52.80;;;27.23;34.95;101011.22;5135821;28;20096;-12
2021/09/15 02:06:29;;;;;;;1.20;1.10;;;23.10;52.80;;;27.27;34.82;101015.31;5115053;28;20514;-12
2021/09/15 02:08:59;;;;;;;1.15;1.05;;;23.10;52.80;;;27.24;34.84;101006.69;5115079;28;20073;-12
2021/09/15 02:11:35;;;;;;;1.35;1.25;;;23.10;52.80;;;27.27;35.05;101014.47;5117225;28;20444;-12
2021/09/15 02:14:03;;;;;;;2.65;1.60;;;23.10;52.80;;;27.24;34.96;101007.53;5100263;28;20081;-11
2021/09/15 02:16:30;;;;;;;1.30;1.20;;;23.10;52.90;;;27.25;35.08;101016.41;5114766;28;20399;-11
2021/09/15 02:18:56;;;;;;;1.27;1.17;;;23.00;52.80;;;27.23;35.21;101007.66;5116506;28;20050;-11
2021/09/15 02:21:38;;;;;;;1.45;1.33;;;23.00;52.90;;;27.28;34.95;101008.09;5115112;28;20048;-11
2021/09/15 02:24:26;;;;;;;1.25;1.10;;;23.10;52.80;;;27.27;34.95;101004.56;5134894;28;20047;-12
2021/09/15 02:27:11;;;;;;;1.08;1.00;;;23.10;52.80;;;27.25;35.01;101005.69;5135036;28;20054;-11
2021/09/15 02:29:37;;;;;;;1.30;1.20;;;23.10;52.80;;;27.25;34.68;101017.28;5116287;28;20494;-12
2021/09/15 02:32:26;;;;;;;1.55;1.30;;;23.10;53.30;;;27.26;34.92;101015.44;5116738;28;20058;-12
2021/09/15 02:35:10;;;;;;;1.40;1.30;;;23.10;52.80;;;27.26;35.03;101010.91;5133554;28;20059;-11
2021/09/15 02:37:57;;;;;;;1.30;1.20;;;23.10;52.80;;;27.26;34.91;101010.91;5116770;28;20559;-12
2021/09/15 02:40:41;;;;;;;1.42;1.33;;;23.10;52.80;;;27.23;35.02;101002.28;5134906;28;20066;-12
2021/09/15 02:43:33;;;;;;;;;;;23.10;52.80;;;27.40;34.47;101007.09;5113315;28;20391;-11
2021/09/15 02:46:25;;;;;;;1.33;1.23;;;23.10;52.80;;;27.28;34.81;100995.56;5116251;28;19933;-12
2021/09/15 02:49:27;;;;;;;1.40;1.30;;;23.00;52.80;;;27.27;35.12;101003.72;5114854;28;20125;-12
2021/09/15 02:52:16;;;;;;;1.50;1.30;;;23.10;52.90;;;27.26;35.00;100999.34;5116402;28;20054;-11
2021/09/15 02:54:52;;;;;;;1.35;1.25;;;23.10;52.90;;;27.25;34.98;101005.69;5116755;28;20103;-12
2021/09/15 02:57:28;;;;;;;2.08;1.20;;;23.10;52.80;;;27.24;34.89;101004.00;5115819;28;20055;-12
2021/09/15 03:00:06;;;;;;;1.30;1.20;;;23.10;52.80;;;27.25;35.00;101011.03;5116384;28;20053;-12
2021/09/15 03:02:54;;;;;;;1.17;1.10;;;23.10;52.80;;;27.25;34.85;101006.56;5133904;28;20133;-11
2021/09/15 03:05:32;;;;;;;1.30;1.08;;;23.00;52.80;;;27.23;34.86;100997.78;5116477;28;20039;-12
2021/09/15 03:08:33;;;;;;;1.42;1.33;;;23.00;52.70;;;27.25;34.85;100995.81;5090314;28;20403;-11
2021/09/15 03:10:59;;;;;;;1.20;1.10;;;23.10;52.80;;;27.23;34.91;100988.88;5106956;28;20050;-12
2021/09/15 03:13:25;;;;;;;1.20;1.10;;;23.00;52.80;;;27.23;34.95;100991.53;5114102;28;20051;-12
2021/09/15 03:15:51;;;;;;;1.40;1.30;;;23.00;52.80;;;27.22;34.99;101000.59;5115605;28;20047;-12
2021/09/15 03:18:17;;;;;;;1.20;1.20;;;23.10;52.90;;;27.23;34.98;100999.59;5115434;28;20146;-12
2021/09/15 03:20:43;;;;;;;1.55;1.13;;;23.00;52.80;;;27.23;34.86;100988.88;5114839;28;20043;-12
2021/09/15 03:23:09;;;;;;;1.23;1.13;;;23.00;52.80;;;27.23;34.79;100972.75;5134613;28;20100;-12
2021/09/15 03:25:34;;;;;;;1.10;1.08;;;23.00;52.80;;;27.24;34.93;100964.56;5134109;28;20108;-12
2021/09/15 03:28:00;;;;;;;1.85;1.52;;;23.00;52.80;;;27.22;34.91;100946.91;5114563;28;20146;-11
2021/09/15 03:30:26;;;;;;;1.02;1.02;;;23.10;52.90;;;27.22;34.91;100952.28;5115615;28;20432;-12
2021/09/15 03:32:52;;;;;;;1.35;1.25;;;23.00;52.80;;;27.21;34.79;100967.50;5134170;28;20084;-12
2021/09/15 03:35:18;;;;;;;1.30;1.20;;;23.00;52.80;;;27.20;34.95;100979.25;5115453;28;20051;-12
2021/09/15 03:37:44;;;;;;;1.85;1.20;;;23.10;52.90;;;27.23;34.89;100973.63;5113688;28;20090;-12
2021/09/15 03:40:11;;;;;;;1.45;1.10;;;23.10;52.90;;;27.21;34.91;100964.84;5115682;28;20039;-12
2021/09/15 03:42:36;;;;;;;1.35;1.25;;;23.10;52.80;;;27.23;34.85;100972.75;5133869;28;20055;-12
2021/09/15 03:45:04;;;;;;;2.58;1.30;;;23.10;52.90;;;27.21;34.99;100972.03;5115296;28;20046;-12
2021/09/15 03:47:30;;;;;;;1.30;1.20;;;23.00;52.80;;;27.21;34.90;100964.84;5114235;28;20078;-12
2021/09/15 03:49:56;;;;;;;1.23;1.13;;;23.00;52.80;;;27.23;35.12;100945.91;5115188;28;20051;-12
2021/09/15 03:52:22;;;;;;;2.03;1.27;;;23.00;52.80;;;27.24;35.01;100950.31;5115519;28;20549;-12
2021/09/15 03:54:47;;;;;;;1.30;1.20;;;23.00;52.80;;;27.23;34.89;100938.72;5114287;28;20047;-12
2021/09/15 03:57:13;;;;;;;1.25;1.10;;;23.00;52.80;;;27.21;34.85;100939.84;5111278;28;20483;-12
2021/09/15 03:59:39;;;;;;;2.08;1.60;;;23.00;52.80;;;27.21;34.80;100934.47;5114984;28;20081;-12
2021/09/15 04:02:06;;;;;;;1.40;1.30;;;23.00;52.80;;;27.22;34.92;100922.75;5115402;28;20051;-12
2021/09/15 04:04:32;;;;;;;1.50;1.40;;;23.00;52.80;;;27.21;35.01;100915.69;5115083;28;20043;-12
2021/09/15 04:06:58;;;;;;;1.42;1.33;;;23.00;52.80;;;27.21;34.87;100924.56;5133444;28;20035;-12
2021/09/15 04:09:24;;;;;;;1.20;1.10;;;23.00;52.80;;;27.21;35.03;100913.84;5114333;28;20047;-12
2021/09/15 04:11:50;;;;;;;1.20;1.10;;;23.00;52.80;;;27.21;35.15;100913.84;5114994;28;20036;-12
2021/09/15 04:14:15;;;;;;;1.00;1.00;;;23.00;52.80;;;27.20;34.83;100913.97;5113632;28;20043;-12
2021/09/15 04:16:41;;;;;;;1.48;1.38;;;23.00;52.90;;;27.21;35.12;100913.84;5114446;28;20047;-12
2021/09/15 04:19:07;;;;;;;1.50;1.40;;;23.00;52.80;;;27.20;34.82;100908.59;5113822;27;20048;-12
2021/09/15 04:21:34;;;;;;;1.10;1.00;;;23.00;52.80;;;27.20;35.14;100911.28;5116864;28;20142;-11
2021/09/15 04:24:23;;;;;;;1.48;1.38;;;23.00;52.80;;;27.21;35.11;100927.25;5119216;28;20043;-12
2021/09/15 04:31:16;;;;;;;1.35;1.25;;;23.00;52.80;;;27.21;35.04;100919.19;5133781;28;20043;-11
2021/09/15 04:32:31;;;;;;;1.30;1.20;;;23.00;52.90;;;27.20;34.92;100922.88;5118829;28;20035;-12
2021/09/15 04:34:57;;;;;;;2.72;1.38;;;23.00;52.90;;;27.20;35.05;100922.88;5117278;28;20047;-12
2021/09/15 04:37:23;;;;;;;1.38;1.27;;;23.00;52.90;;;27.20;34.86;100917.53;5136692;28;20071;-12
2021/09/15 04:39:49;;;;;;;1.45;1.35;;;23.00;52.80;;;27.20;34.92;100922.88;5136738;28;20095;-12
2021/09/15 04:42:15;;;;;;;1.10;1.10;;;23.00;52.90;;;27.17;35.02;100910.56;5118095;28;20047;-12
2021/09/15 04:44:41;;;;;;;1.30;1.20;;;23.00;52.80;;;27.17;35.07;100913.25;5117341;28;20046;-12
2021/09/15 04:47:07;;;;;;;1.40;1.30;;;23.00;52.80;;;27.21;34.86;100911.16;5118048;28;20051;-12
2021/09/15 04:49:33;;;;;;;1.30;1.20;;;23.00;52.80;;;27.21;34.85;100910.31;5131896;28;20130;-12
2021/09/15 04:52:00;;;;;;;1.40;1.30;;;23.00;52.80;;;27.16;35.01;100902.66;5118564;28;20091;-12
2021/09/15 04:54:27;;;;;;;1.30;1.20;;;23.00;52.80;;;27.18;34.95;100903.34;5118567;28;20047;-12
2021/09/15 04:56:54;;;;;;;1.20;1.10;;;23.00;52.80;;;27.18;34.95;100900.66;5118332;28;20039;-12
2021/09/15 04:59:23;;;;;;;1.48;1.13;;;23.00;52.80;;;27.20;34.94;100893.34;5115093;28;20440;-12
2021/09/15 05:01:49;;;;;;;1.33;1.23;;;23.00;52.80;;;27.18;35.12;100889.94;5115750;28;20050;-11
2021/09/15 05:04:15;;;;;;;1.30;1.20;;;23.00;52.80;;;27.17;35.34;100893.63;5117879;28;20135;-12
2021/09/15 05:06:52;;;;;;;1.05;1.05;;;23.00;52.80;;;27.20;34.86;100897.84;5115583;28;20042;-12
2021/09/15 05:09:18;;;;;;;1.40;1.30;;;23.00;52.90;;;27.20;35.06;100893.34;5117311;28;20047;-12
2021/09/15 05:11:47;;;;;;;1.30;1.20;;;23.00;52.80;;;27.20;34.86;100879.06;5118282;28;20071;-12
2021/09/15 05:14:13;;;;;;;1.45;1.23;;;23.00;52.80;;;27.20;34.90;100881.75;5118209;28;20053;-11
2021/09/15 05:16:39;;;;;;;1.40;1.30;;;23.00;52.80;;;27.20;35.14;100887.13;5100455;28;20043;-12
2021/09/15 05:19:05;;;;;;;1.23;1.13;;;23.00;52.80;;;27.20;34.93;100892.50;5117922;28;20047;-12
2021/09/15 05:21:31;;;;;;;1.55;1.45;;;23.00;52.80;;;27.17;34.96;100891.78;5117909;28;20043;-12
2021/09/15 05:23:56;;;;;;;1.20;1.10;;;23.00;52.80;;;27.20;34.84;100892.50;5118099;28;20043;-12
2021/09/15 05:26:22;;;;;;;1.60;1.50;;;23.00;52.90;;;27.18;34.98;100884.56;5118034;28;20387;-12
2021/09/15 05:28:48;;;;;;;1.30;1.20;;;23.00;52.90;;;27.16;35.08;100881.19;5135649;28;20514;-12
2021/09/15 05:31:14;;;;;;;1.42;1.33;;;23.00;52.90;;;27.18;34.91;100874.72;5116501;28;20051;-12
2021/09/15 05:33:43;;;;;;;1.42;1.30;;;23.00;52.90;;;27.19;35.06;100872.84;5117316;28;20073;-12
2021/09/15 05:36:11;;;;;;;1.27;1.17;;;23.00;52.90;;;27.17;34.96;100874.84;5117258;28;20050;-12
2021/09/15 05:38:38;;;;;;;1.35;1.25;;;23.00;52.80;;;27.20;35.18;100881.75;5116955;28;20043;-12
2021/09/15 05:41:14;;;;;;;1.20;1.10;;;23.00;52.80;;;27.17;35.04;100880.22;5136188;28;20086;-11
2021/09/15 05:43:41;;;;;;;1.20;1.10;;;23.00;52.80;;;27.17;34.81;100886.41;5117165;28;20057;-12
2021/09/15 05:46:12;;;;;;;1.67;1.23;;;23.00;52.90;;;27.19;34.92;100894.34;5117899;28;20054;-12
2021/09/15 05:48:39;;;;;;;1.30;1.20;;;23.00;52.80;;;27.20;35.03;100893.34;5116914;28;20145;-12
2021/09/15 05:51:06;;;;;;;1.48;1.38;;;23.00;52.80;;;27.16;34.80;100889.22;5117143;28;20043;-11
2021/09/15 05:53:32;;;;;;;1.40;1.30;;;23.00;52.80;;;27.17;35.09;100893.63;5116993;28;20050;-12
2021/09/15 05:55:58;;;;;;;1.40;1.30;;;23.00;52.90;;;27.17;34.93;100886.41;5115089;28;20051;-12
2021/09/15 05:58:23;;;;;;;1.38;1.27;;;23.00;52.80;;;27.16;34.95;100884.72;5116173;28;20059;-12
2021/09/15 06:00:50;;;;;;;1.20;1.10;;;23.00;52.80;;;27.18;34.83;100884.56;5097485;28;20130;-12
2021/09/15 06:03:17;;;;;;;1.02;1.02;;;23.00;52.70;;;27.22;35.01;100885.19;5114786;28;20498;-12
2021/09/15 06:05:49;;;;;;;1.40;1.30;;;23.00;52.70;;;27.19;35.12;100883.59;5113792;28;20134;-12
2021/09/15 06:08:17;;;;;;;1.40;1.30;;;23.00;52.70;;;27.20;35.02;100882.63;5116202;28;20047;-12
2021/09/15 06:10:43;;;;;;;1.70;1.58;;;23.00;53.30;;;27.22;35.01;100879.81;5115420;28;20047;-12
2021/09/15 06:13:09;;;;;;;1.60;1.50;;;23.00;52.80;;;27.18;34.77;100871.16;5116816;28;20096;-12
2021/09/15 06:15:35;;;;;;;1.42;1.33;;;23.00;52.70;;;27.21;35.03;100872.72;5116651;28;20047;-11
2021/09/15 06:18:01;;;;;;;1.23;1.13;;;23.00;52.70;;;27.20;34.91;100873.69;5115360;28;20560;-12
2021/09/15 06:20:30;;;;;;;1.27;1.17;;;23.10;52.80;;;27.22;35.10;100874.44;5116522;28;20055;-12
2021/09/15 06:23:05;;;;;;;1.35;1.25;;;23.00;52.70;;;27.21;35.02;100864.69;5115165;28;20526;-12
2021/09/15 06:25:49;;;;;;;1.27;1.17;;;23.00;52.70;;;27.24;34.84;100872.47;5135419;28;20103;-12
2021/09/15 06:28:15;;;;;;;1.45;1.35;;;23.10;52.70;;;27.21;34.85;100859.31;5114438;28;20442;-12
2021/09/15 06:30:41;;;;;;;1.50;1.40;;;23.10;52.70;;;27.25;35.09;100871.44;5135213;28;20080;-12
2021/09/15 06:33:08;;;;;;;1.38;1.27;;;23.10;52.70;;;27.22;34.93;100861.84;5134845;28;20047;-12
2021/09/15 06:35:34;;;;;;;1.35;1.25;;;23.00;52.60;;;27.22;34.91;100856.50;5134706;28;20071;-12
2021/09/15 06:38:00;;;;;;;1.20;1.10;;;23.10;52.70;;;27.22;35.14;100856.50;5134996;28;20089;-12
2021/09/15 06:40:26;;;;;;;1.60;1.50;;;23.10;52.70;;;27.23;34.98;100863.56;5115765;28;20059;-11
2021/09/15 06:42:51;;;;;;;1.45;1.27;;;23.10;52.70;;;27.26;35.04;100865.13;5134777;27;20043;-12
2021/09/15 06:45:17;;;;;;;1.60;1.50;;;23.10;52.70;;;27.24;34.81;100864.41;5135270;28;20047;-12
2021/09/15 06:47:44;;;;;;;1.98;1.40;;;23.10;52.70;;;27.24;34.90;100864.41;5134788;28;20463;-12
2021/09/15 06:50:12;;;;;;;2.33;1.63;;;23.10;52.70;;;27.23;34.72;100868.06;5134660;28;20107;-11
2021/09/15 06:52:39;;;;;;;1.40;1.30;;;23.10;52.70;;;27.24;34.81;100869.78;5134439;28;20047;-12
2021/09/15 06:55:06;;;;;;;1.40;1.30;;;23.10;52.70;;;27.24;35.04;100867.94;5135165;28;20387;-12
2021/09/15 06:57:32;;;;;;;1.50;1.40;;;23.10;52.70;;;27.24;35.01;100869.78;5134478;28;20538;-12
2021/09/15 06:59:58;;;;;;;1.50;1.40;;;23.10;52.70;;;27.26;34.79;100887.44;5134679;28;20104;-11
2021/09/15 07:02:25;;;;;;;1.50;1.40;;;23.10;52.70;;;27.25;34.78;100898.31;5134340;28;20099;-11
2021/09/15 07:04:52;;;;;;;1.60;1.50;;;23.10;52.70;;;27.24;34.95;100896.63;5134205;28;20129;-11
2021/09/15 07:07:18;;;;;;;1.70;1.60;;;23.10;52.70;;;27.24;34.91;100902.81;5134658;28;20061;-11
2021/09/15 07:09:44;;;;;;;2.20;1.40;;;23.00;52.60;;;27.25;35.07;100895.63;5134631;28;20146;-11
2021/09/15 07:12:10;;;;;;;1.48;1.38;;;23.10;52.70;;;27.25;35.01;100909.03;5134225;28;20047;-12
2021/09/15 07:14:35;;;;;;;1.60;1.50;;;23.10;52.70;;;27.26;34.76;100908.06;5112364;28;20043;-12
2021/09/15 07:17:01;;;;;;;1.33;1.23;;;23.10;52.70;;;27.26;34.77;100905.38;5134197;28;20043;-12
2021/09/15 07:19:27;;;;;;;1.50;1.40;;;23.10;52.60;;;27.24;34.97;100908.19;5133943;28;20134;-12
2021/09/15 07:21:53;;;;;;;1.60;1.50;;;23.10;52.60;;;27.25;34.91;100898.31;5134125;28;20043;-12
2021/09/15 07:24:19;;;;;;;1.50;1.40;;;23.10;53.20;;;27.25;35.09;100893.81;5134088;28;20044;-12
2021/09/15 07:26:44;;;;;;;1.30;1.20;;;23.10;52.60;;;27.24;34.91;100891.25;5134066;28;20050;-12
2021/09/15 07:29:10;;;;;;;1.77;1.67;;;23.10;52.60;;;27.28;34.65;100890.84;5133664;28;20142;-12
2021/09/15 07:31:38;;;;;;;1.23;1.13;;;23.10;52.60;;;27.25;34.84;100892.94;5134265;28;20047;-12
2021/09/15 07:34:05;;;;;;;1.80;1.52;;;23.10;52.60;;;27.24;34.83;100883.19;5134204;28;20039;-12
2021/09/15 07:36:32;;;;;;;1.60;1.50;;;23.10;52.60;;;27.25;34.74;100896.47;5133831;28;20072;-11
2021/09/15 07:38:58;;;;;;;1.48;1.38;;;23.10;52.60;;;27.25;34.73;100895.63;5133968;28;20057;-11
2021/09/15 07:41:25;;;;;;;1.45;1.35;;;23.10;52.50;;;27.26;34.93;100892.78;5133915;28;20035;-12
2021/09/15 07:43:51;;;;;;;2.08;1.80;;;23.20;52.60;;;27.28;34.98;100903.41;5133802;28;20126;-12
2021/09/15 07:46:21;;;;;;;1.50;1.40;;;23.20;52.50;;;27.29;34.94;100905.16;5133716;28;20101;-12
2021/09/15 07:48:50;;;;;;;1.50;1.40;;;23.20;52.50;;;27.29;35.04;100902.47;5133683;28;20039;-11
2021/09/15 07:51:17;;;;;;;2.42;1.58;;;23.20;52.40;;;27.31;35.02;100911.22;5133612;28;20039;-12
2021/09/15 07:53:43;;;;;;;3.47;1.48;;;23.20;52.40;;;27.31;34.92;100906.69;5133621;28;20054;-12
2021/09/15 07:56:10;;;;;;;2.92;1.70;;;23.20;52.30;;;27.33;34.68;100914.63;5133148;27;20483;-12
2021/09/15 07:58:37;;;;;;;2.00;1.80;;;23.20;52.40;;;27.33;35.01;100910.13;5133813;28;20143;-12
2021/09/15 08:01:03;;;;;;;1.90;1.80;;;23.20;52.30;;;27.32;34.87;100896.81;5133499;28;20057;-12
2021/09/15 08:03:29;;;;;;;1.85;1.50;;;23.20;52.30;;;27.32;34.82;100904.88;5133538;28;20142;-12
2021/09/15 08:05:57;;;;;;;2.03;1.50;;;23.20;52.30;;;27.35;34.96;100901.94;5133604;28;20043;-12
2021/09/15 08:08:23;;;;;;;1.95;1.73;;;23.30;52.40;;;27.33;34.57;100904.75;5132830;28;20490;-11
2021/09/15 08:10:50;;;;;;;1.70;1.60;;;23.20;52.40;;;27.31;34.64;100906.69;5133115;28;20567;-12
2021/09/15 08:13:20;;;;;;;2.50;1.95;;;23.20;52.40;;;27.34;34.88;100910.94;5132999;28;20048;-11
2021/09/15 08:15:47;;;;;;;2.08;1.88;;;23.20;52.40;;;27.35;34.92;100901.94;5133191;28;20115;-12
2021/09/15 08:18:13;;;;;;;2.13;1.80;;;23.20;52.40;;;27.32;34.76;100902.19;5133266;28;20058;-12
2021/09/15 08:20:39;;;;;;;3.00;1.55;;;23.20;52.40;;;27.34;34.66;100913.63;5132994;28;20479;-12
2021/09/15 08:23:05;;;;;;;2.63;2.00;;;23.20;52.40;;;27.35;34.99;100923.41;5133302;28;20070;-12
2021/09/15 08:25:30;;;;;;;1.95;1.75;;;23.20;52.40;;;27.34;34.77;100913.63;5133243;28;20522;-12
2021/09/15 08:27:57;;;;;;;2.60;1.90;;;23.20;52.90;;;27.32;34.85;100921.81;5133344;28;20051;-12
2021/09/15 08:30:22;;;;;;;3.72;2.30;;;23.20;52.40;;;27.36;34.75;100919.72;5133167;28;20054;-12
2021/09/15 08:32:48;;;;;;;2.97;1.83;;;23.30;52.30;;;27.37;34.56;100918.75;5133042;28;20039;-11
2021/09/15 08:35:15;;;;;;;5.00;2.10;;;23.30;52.30;;;27.34;34.77;100914.47;5133075;28;20134;-12
2021/09/15 08:37:41;;;;;;;2.20;1.90;;;23.30;52.20;;;27.39;34.68;100921.28;5114512;28;20050;-11
2021/09/15 08:40:09;;;;;;;1.83;1.73;;;23.30;52.20;;;27.34;34.71;100917.16;5133276;28;20039;-12
2021/09/15 08:42:35;;;;;;;8.55;2.13;;;23.30;52.20;;;27.38;34.52;100915.06;5133019;28;20051;-12
2021/09/15 08:45:08;;;;;;;4.80;2.10;;;23.30;52.10;;;27.35;34.56;100900.09;5133330;28;20043;-12
2021/09/15 08:47:37;;;;;;;3.20;1.73;;;23.30;52.10;;;27.40;34.82;100904.19;5133029;28;20047;-12
2021/09/15 08:50:04;;;;;;;3.30;2.15;;;23.40;52.10;;;27.39;34.91;100900.66;5132997;28;20543;-11
2021/09/15 08:52:30;;;;;;;2.35;2.10;;;23.40;52.00;;;27.41;34.57;100904.03;5132842;28;20099;-12
2021/09/15 08:54:56;;;;;;;2.20;1.80;;;23.40;51.90;;;27.43;34.68;100909.28;5132769;28;20543;-12
2021/09/15 08:57:22;;;;;;;3.10;1.85;;;23.40;51.90;;;27.44;34.56;100906.47;5113839;28;20151;-12
2021/09/15 08:59:48;;;;;;;2.65;1.80;;;23.40;51.90;;;27.43;34.90;100909.28;5133115;28;20039;-12
2021/09/15 09:02:14;;;;;;;2.30;2.03;;;23.40;51.80;;;27.45;34.67;100909.97;5132686;28;20418;-12
2021/09/15 09:05:10;;;;;;;4.38;1.90;;;23.50;51.80;;;27.45;34.66;100908.16;5113714;28;20490;-12
2021/09/15 09:07:36;;;;;;;2.65;1.92;;;23.50;51.80;;;27.47;34.78;100903.50;5116690;28;20058;-12
2021/09/15 09:10:09;;;;;;;2.35;1.92;;;23.50;52.20;;;27.45;35.07;100908.16;5136129;28;20055;-12
2021/09/15 09:12:37;;;;;;;2.42;1.75;;;23.40;52.80;;;27.43;34.76;100902.09;5118145;28;20047;-12
2021/09/15 09:15:24;;;;;;;3.53;2.22;;;23.40;52.70;;;27.44;34.91;100900.25;5135953;28;20430;-12
2021/09/15 09:18:02;;;;;;;4.90;2.20;;;23.50;52.50;;;27.47;34.98;100905.34;5117214;28;20096;-12
2021/09/15 09:20:35;;;;;;;10.18;2.47;;;23.50;52.30;;;27.47;35.05;100900.81;5136315;28;20053;-12
2021/09/15 09:23:15;;;;;;;3.15;2.08;;;23.50;52.20;;;27.48;35.08;100898.97;5117682;28;20478;-11
2021/09/15 09:25:58;;;;;;;2.40;2.10;;;23.50;52.20;;;27.44;34.84;100884.97;5116548;28;20051;-12
2021/09/15 09:28:36;;;;;;;2.53;2.00;;;23.50;52.30;;;27.47;34.76;100889.25;5135580;28;20047;-12
2021/09/15 09:31:09;;;;;;;2.70;2.08;;;23.50;52.30;;;27.47;35.01;100891.94;5134826;28;20108;-12
2021/09/15 09:33:43;;;;;;;3.47;2.50;;;23.40;52.20;;;27.49;34.87;100892.63;5117682;28;20050;-12
2021/09/15 09:36:10;;;;;;;4.93;2.30;;;23.40;52.20;;;27.46;34.91;100885.69;5135886;28;20043;-11
2021/09/15 09:38:44;;;;;;;2.30;2.08;;;23.40;52.30;;;27.46;34.67;100882.16;5135954;28;20039;-12
2021/09/15 09:41:19;;;;;;;2.47;2.25;;;23.40;52.20;;;27.44;34.98;100879.59;5117707;28;20047;-12
2021/09/15 09:43:51;;;;;;;3.42;2.10;;;23.50;52.70;;;27.46;34.84;100882.16;5117533;28;20043;-12
2021/09/15 09:46:29;;;;;;;3.77;2.27;;;23.40;52.30;;;27.43;34.88;100872.56;5117019;28;20047;-12
2021/09/15 09:48:56;;;;;;;8.40;3.22;;;23.50;52.50;;;27.45;34.84;100867.03;5135630;28;20055;-12
2021/09/15 09:51:37;;;;;;;3.70;2.92;;;23.50;52.40;;;27.45;35.13;100870.56;5135556;28;20039;-11
2021/09/15 09:54:27;;;;;;;4.80;2.53;;;23.50;52.30;;;27.46;34.93;100866.03;5135657;28;20122;-12
2021/09/15 09:56:58;;;;;;;3.47;2.40;;;23.60;52.30;;;27.46;34.83;100869.56;5115131;28;20066;-12
2021/09/15 09:59:27;;;;;;;5.30;3.13;;;23.50;52.20;;;27.45;34.92;100859.84;5135709;28;20196;-12
2021/09/15 10:02:04;;;;;;;4.28;2.70;;;23.50;52.20;;;27.46;34.90;100860.69;5135468;28;20046;-12
2021/09/15 10:04:32;;;;;;;3.72;2.35;;;23.50;52.20;;;27.48;35.22;100856.00;5135344;28;20495;-12
2021/09/15 10:06:59;;;;;;;4.82;2.60;;;23.50;52.20;;;27.48;34.86;100853.31;5135373;28;20069;-12
2021/09/15 10:09:25;;;;;;;3.28;2.38;;;23.50;52.20;;;27.45;34.97;100845.53;5116774;28;20058;-12
2021/09/15 10:11:52;;;;;;;2.50;2.30;;;23.50;52.10;;;27.48;35.07;100851.50;5135340;28;20059;-12
2021/09/15 10:14:18;;;;;;;5.15;3.00;;;23.50;52.20;;;27.48;35.03;100845.28;5135080;28;20047;-12
2021/09/15 10:16:49;;;;;;;2.63;2.40;;;23.50;52.20;;;27.45;34.80;100842.84;5134963;28;20142;-12
2021/09/15 10:19:18;;;;;;;;;;;23.50;52.10;;;27.61;34.57;100840.47;5117257;28;20047;-12
2021/09/15 10:21:57;;;;;;;3.50;2.40;;;23.50;52.10;;;27.49;34.83;100836.25;5117257;28;19915;-12
2021/09/15 10:24:48;;;;;;;4.57;2.67;;;23.50;52.00;;;27.50;34.77;100836.09;5135092;28;20392;-12
2021/09/15 10:27:18;;;;;;;3.17;2.47;;;23.50;52.10;;;27.48;34.82;100830.03;5135053;28;20043;-12